Home > Products > Valid Products > TAF

000
FTUS44 KMEG 262059 AAA
TAFMEM
TAF AMD
KMEM 262059Z 2621/2718 17010KT P6SM BKN080
     FM262200 29010KT P6SM SCT045
     FM270800 31010KT P6SM SCT025
     FM271200 34010KT P6SM BKN250=



000
FTUS44 KMEG 261723
TAFMKL
TAF
KMKL 261723Z 2618/2718 14005KT P6SM FEW050 BKN250
     FM261900 21008KT P6SM VCSH OVC050
     FM270000 27005KT P6SM BKN025
     FM270400 29010KT P6SM SCT250
     FM271200 32010KT P6SM BKN250=



000
FTUS44 KMEG 261723
TAFJBR
TAF
KJBR 261723Z 2618/2718 17010KT P6SM VCSH OVC090
      TEMPO 2618/2620 6SM -RA OVC025
     FM262000 27010KT P6SM OVC025
     FM270000 30010KT P6SM SCT040
      TEMPO 2709/2713 BKN015
     FM271300 33010KT P6SM SCT250=



000
FTUS44 KMEG 261723
TAFMEM
TAF
KMEM 261723Z 2618/2718 20010KT P6SM OVC250
     FM262200 29010KT P6SM SCT050
     FM270800 31010KT P6SM SCT025
     FM271200 34010KT P6SM BKN250=



000
FTUS44 KMEG 261723
TAFTUP
TAF
KTUP 261723Z 2618/2718 21010KT P6SM BKN250
     FM270000 30007KT P6SM SCT040
     FM271200 36010KT P6SM OVC250=



000
FTUS44 KMEG 261459 AAA
TAFMEM
TAF AMD
KMEM 261459Z 2615/2712 16010KT P6SM BKN200
     FM261700 18012G18KT P6SM VCSH BKN050 OVC100
     FM262200 29010KT P6SM SCT050
     FM270800 31010KT P6SM SCT025=



000
FTUS44 KMEG 261138
TAFJBR
TAF
KJBR 261138Z 2612/2712 00000KT P6SM SCT120
     FM261400 15008KT P6SM SCT050 BKN120
     FM261600 18012G18KT P6SM VCSH OVC050
      TEMPO 2616/2620 6SM -RA BKN025
     FM262000 27010KT P6SM BKN025
     FM270000 30010KT P6SM SCT040
      TEMPO 2708/2712 BKN015=



000
FTUS44 KMEG 261138
TAFMKL
TAF
KMKL 261138Z 2612/2712 00000KT P6SM SCT250
     FM261500 16008KT P6SM FEW050 BKN250
     FM261900 18010G16KT P6SM VCSH OVC050
      TEMPO 2619/2623 6SM -RA BKN025
     FM262300 28010KT P6SM BKN025
     FM270600 31010KT P6SM OVC015=



000
FTUS44 KMEG 261138
TAFTUP
TAF
KTUP 261138Z 2612/2712 VRB03KT P6SM SKC
     FM261400 19005KT P6SM FEW150 BKN250
     FM261800 21010G16KT P6SM SCT050 BKN120
     FM270000 28008KT P6SM SCT040=



000
FTUS44 KMEG 261138
TAFMEM
TAF
KMEM 261138Z 2612/2712 00000KT P6SM SCT250
     FM261400 16008KT P6SM FEW050 BKN250
     FM261700 18012G18KT P6SM VCSH BKN050 OVC100
     FM262200 29010KT P6SM SCT050
     FM270800 31010KT P6SM SCT025=



000
FTUS44 KMEG 260851 AAA
TAFMEM
TAF AMD
KMEM 260851Z 2609/2706 00000KT P6SM SCT250
     FM261400 16008KT P6SM FEW050 BKN150
     FM261700 18012G18KT P6SM VCSH BKN050 OVC120
     FM262200 29010KT P6SM SCT025 BKN040
      TEMPO 2702/2706 BKN025=



000
FTUS44 KMEG 260524
TAFMKL
TAF
KMKL 260524Z 2606/2706 00000KT P6SM SCT250
     FM261500 16008KT P6SM FEW050 BKN120
     FM261800 18010G16KT P6SM VCSH BKN050 OVC090
     FM262300 28010KT P6SM SCT025 BKN040
      TEMPO 2702/2706 BKN025=



000
FTUS44 KMEG 260524
TAFJBR
TAF
KJBR 260524Z 2606/2706 00000KT P6SM FEW120 BKN250
     FM261400 15008KT P6SM SCT050 BKN120
     FM261600 18012G18KT P6SM VCSH BKN050 OVC090
     FM262100 26010KT P6SM SCT025 BKN040
      TEMPO 2702/2706 BKN025=



000
FTUS44 KMEG 260524
TAFTUP
TAF
KTUP 260524Z 2606/2706 VRB03KT P6SM SKC
     FM261400 19005KT P6SM FEW150 BKN250
     FM261800 21010G16KT P6SM SCT050 BKN120
     FM270000 28008KT P6SM SCT040=



000
FTUS44 KMEG 260524
TAFMEM
TAF
KMEM 260524Z 2606/2706 19003KT P6SM BKN250
     FM261400 16008KT P6SM FEW050 BKN150
     FM261700 18012G18KT P6SM VCSH BKN050 OVC120
     FM262200 29010KT P6SM SCT025 BKN040
      TEMPO 2702/2706 BKN025=



000
FTUS44 KMEG 260258 AAA
TAFMEM
TAF AMD
KMEM 260258Z 2603/2624 19003KT P6SM FEW120 SCT250
     FM261400 17010KT P6SM SCT050 BKN120
     FM261700 19013G20KT P6SM VCSH BKN050 OVC120=



000
FTUS44 KMEG 252321
TAFJBR
TAF
KJBR 252321Z 2600/2624 00000KT P6SM FEW150 SCT250
     FM261300 16008KT P6SM SCT060 BKN150
     FM261600 18013G20KT P6SM VCSH BKN060 OVC150
     FM262200 26010KT P6SM SCT060 BKN150=



000
FTUS44 KMEG 252321
TAFMKL
TAF
KMKL 252321Z 2600/2624 33003KT P6SM BKN250
     FM260800 00000KT P6SM FEW150 SCT250
     FM261500 18008KT P6SM SCT060 BKN150
     FM261800 19010G16KT P6SM VCSH BKN060 OVC150=



000
FTUS44 KMEG 252321
TAFMEM
TAF
KMEM 252321Z 2600/2624 31003KT P6SM BKN250
     FM260700 19003KT P6SM FEW150 SCT250
     FM261400 17010KT P6SM SCT060 BKN150
     FM261700 19013G20KT P6SM VCSH BKN060 OVC150=



000
FTUS44 KMEG 252321
TAFTUP
TAF
KTUP 252321Z 2600/2624 34003KT P6SM BKN250
     FM260900 00000KT P6SM SCT250
     FM261600 19006KT P6SM FEW060 SCT150
     FM261900 22010KT P6SM SCT060 BKN150=



000
FTUS44 KMEG 252051 AAA
TAFMEM
TAF AMD
KMEM 252051Z 2521/2618 28007KT P6SM BKN200
     FM260000 27003KT P6SM FEW150 SCT250
     FM260900 19003KT P6SM OVC250
     FM261600 21010KT P6SM OVC250=



000
FTUS44 KMEG 251724
TAFJBR
TAF
KJBR 251724Z 2518/2618 32008KT P6SM SCT250
     FM260000 00000KT P6SM SCT250
     FM260800 19003KT P6SM OVC250
     FM261400 18010KT P6SM OVC250=



000
FTUS44 KMEG 251724
TAFTUP
TAF
KTUP 251724Z 2518/2618 03011KT P6SM BKN250
     FM260100 00000KT P6SM SCT250
     FM261000 00000KT P6SM BKN250
     FM261500 22005KT P6SM BKN250=



000
FTUS44 KMEG 251724
TAFMKL
TAF
KMKL 251724Z 2518/2618 32006KT P6SM SCT250
     FM260000 00000KT P6SM SCT250
     FM261000 00000KT P6SM OVC250
     FM261500 18005KT P6SM OVC250=



000
FTUS44 KMEG 251724
TAFMEM
TAF
KMEM 251724Z 2518/2618 30008KT P6SM BKN250
     FM260000 27003KT P6SM FEW150 SCT250
     FM260900 19003KT P6SM OVC250
     FM261600 21010KT P6SM OVC250=



000
FTUS44 KMEG 251454 AAA
TAFMEM
TAF AMD
KMEM 251454Z 2515/2612 31005KT P6SM SCT250
     FM260000 27003KT P6SM FEW150 SCT250
     FM260900 19003KT P6SM BKN120 OVC250=



000
FTUS44 KMEG 251130
TAFMKL
TAF
KMKL 251130Z 2512/2612 30004KT P6SM SKC
     FM251600 32007KT P6SM SCT250
     FM260000 00000KT P6SM FEW150 SCT250
     FM261000 00000KT P6SM BKN120 OVC250=



000
FTUS44 KMEG 251130
TAFJBR
TAF
KJBR 251130Z 2512/2612 28006KT P6SM SKC
     FM251500 31008KT P6SM SCT250
     FM260000 00000KT P6SM FEW150 SCT250
     FM260800 19003KT P6SM BKN120 OVC250=



000
FTUS44 KMEG 251130
TAFMEM
TAF
KMEM 251130Z 2512/2612 29003KT P6SM SKC
     FM251500 31007KT P6SM SCT250
     FM260000 27003KT P6SM FEW150 SCT250
     FM260900 19003KT P6SM BKN120 OVC250=



000
FTUS44 KMEG 251130
TAFTUP
TAF
KTUP 251130Z 2512/2612 VRB03KT P6SM SKC
     FM251600 34007KT P6SM BKN250
     FM260100 00000KT P6SM FEW150 SCT250
     FM261000 00000KT P6SM BKN250=



000
FTUS44 KMEG 250852 AAA
TAFMEM
TAF AMD
KMEM 250852Z 2509/2606 29006KT P6SM SKC
     FM251500 32007KT P6SM SCT250
     FM260000 30003KT P6SM FEW150 SCT250=



000
FTUS44 KMEG 250530
TAFJBR
TAF
KJBR 250530Z 2506/2606 28006KT P6SM SKC
     FM251500 31008KT P6SM SCT250
     FM260000 29003KT P6SM FEW150 SCT250=



000
FTUS44 KMEG 250530
TAFMKL
TAF
KMKL 250530Z 2506/2606 27005KT P6SM SKC
     FM251600 32007KT P6SM SCT250
     FM260000 00000KT P6SM FEW150 SCT250=



000
FTUS44 KMEG 250530
TAFMEM
TAF
KMEM 250530Z 2506/2606 27005KT P6SM SKC
     FM251500 32007KT P6SM SCT250
     FM260000 30003KT P6SM FEW150 SCT250=



000
FTUS44 KMEG 250530
TAFTUP
TAF
KTUP 250530Z 2506/2606 VRB03KT P6SM SCT250
     FM251600 34007KT P6SM BKN250
     FM260000 00000KT P6SM FEW150 BKN250=



000
FTUS44 KMEG 250301 AAA
TAFMEM
TAF AMD
KMEM 250301Z 2503/2524 23004KT P6SM SKC
     FM251000 29004KT P6SM SKC
     FM251600 33007KT P6SM SCT250=



000
FTUS44 KMEG 242320
TAFTUP
TAF
KTUP 242320Z 2500/2524 27003KT P6SM SCT250
     FM251300 34006KT P6SM BKN250=



000
FTUS44 KMEG 242320
TAFMKL
TAF
KMKL 242320Z 2500/2524 22004KT P6SM SKC
     FM251100 28004KT P6SM SKC
     FM251700 32007KT P6SM SCT250=



000
FTUS44 KMEG 242320
TAFMEM
TAF
KMEM 242320Z 2500/2524 23004KT P6SM SKC
     FM251000 29004KT P6SM SKC
     FM251600 33007KT P6SM SCT250=



000
FTUS44 KMEG 242320
TAFJBR
TAF
KJBR 242320Z 2500/2524 23005KT P6SM SKC
     FM251000 29005KT P6SM SKC
     FM251600 31007KT P6SM SCT250=



000
FTUS44 KMEG 242055 AAA
TAFMEM
TAF AMD
KMEM 242055Z 2421/2518 28015KT P6SM SKC
     FM250100 21005KT P6SM SKC
     FM251000 31007KT P6SM SKC=



000
FTUS44 KMEG 241732
TAFMEM
TAF
KMEM 241732Z 2418/2518 28015KT P6SM SKC
     FM250100 21005KT P6SM SKC
     FM251000 31007KT P6SM SKC=



000
FTUS44 KMEG 241732
TAFJBR
TAF
KJBR 241732Z 2418/2518 25015KT P6SM SKC
     FM250000 25006KT P6SM SKC
     FM251200 32007KT P6SM SKC=



000
FTUS44 KMEG 241732
TAFTUP
TAF
KTUP 241732Z 2418/2518 26010KT P6SM BKN040
     FM250200 21005KT P6SM SKC
     FM251300 35005KT P6SM SKC=



000
FTUS44 KMEG 241732
TAFMKL
TAF
KMKL 241732Z 2418/2518 27014KT P6SM SKC
     FM250100 21005KT P6SM SKC
     FM251100 32006KT P6SM SKC=



000
FTUS44 KMEG 241500 AAA
TAFMEM
TAF AMD
KMEM 241500Z 2415/2512 26015G24KT P6SM SCT035
     FM241800 26015G25KT P6SM SCT250
     FM250100 21005KT P6SM SKC=



000
FTUS44 KMEG 241120
TAFJBR
TAF
KJBR 241120Z 2412/2512 28015G23KT P6SM SCT023 BKN035 OVC060
     FM241800 25015G25KT P6SM SCT250
     FM250000 25006KT P6SM SKC=



000
FTUS44 KMEG 241120
TAFMEM
TAF
KMEM 241120Z 2412/2512 28017G27KT P6SM FEW024 OVC030
     FM241500 26015G24KT P6SM BKN045
     FM241800 26015G25KT P6SM SCT250
     FM250100 21005KT P6SM SKC=



000
FTUS44 KMEG 241120
TAFMKL
TAF
KMKL 241120Z 2412/2512 24017G30KT P6SM SCT025 OVC035
     FM241500 26017G25KT P6SM BKN040
     FM241800 26014G25KT P6SM SCT250
     FM250100 21005KT P6SM SKC=



000
FTUS44 KMEG 241120
TAFTUP
TAF
KTUP 241120Z 2412/2512 26011G17KT P6SM SCT030
     FM241500 29012G18KT P6SM BKN045
     FM242100 26015G25KT P6SM SCT250
     FM250200 21005KT P6SM SKC=



000
FTUS44 KMEG 241017 AAC
TAFMEM
TAF AMD
KMEM 241017Z 2410/2506 27019G30KT P6SM BKN026 BKN035 OVC060
     FM241500 27017G25KT P6SM BKN025
     FM242000 26015G25KT P6SM SCT250
     FM250100 21005KT P6SM SKC=



000
FTUS44 KMEG 240905 AAB
TAFMEM
TAF AMD
KMEM 240905Z 2409/2506 24015G24KT P6SM FEW029
     FM241500 27017G25KT P6SM BKN025
     FM242000 26015G25KT P6SM SCT250
     FM250100 21005KT P6SM SKC=



000
FTUS44 KMEG 240823 AAA
TAFJBR
TAF AMD
KJBR 240823Z 2408/2506 21030G38KT P6SM SCT025 BKN090
     FM241200 26017G27KT P6SM BKN025
     FM241800 25015G25KT P6SM SCT250
     FM250000 25006KT P6SM SKC=



000
FTUS44 KMEG 240820 AAA
TAFMEM
TAF AMD
KMEM 240820Z 2408/2506 23017G24KT P6SM FEW035
     FM241500 27017G25KT P6SM BKN025
     FM242000 26015G25KT P6SM SCT250
     FM250100 21005KT P6SM SKC=



000
FTUS44 KMEG 240520
TAFMKL
TAF
KMKL 240520Z 2406/2506 21019G25KT P6SM SCT020 BKN030
     FM240900 23015G25KT P6SM BKN015
     FM241500 26017G25KT P6SM BKN020
     FM241800 26014G25KT P6SM SCT250
     FM250100 21005KT P6SM SKC=



000
FTUS44 KMEG 240520
TAFTUP
TAF
KTUP 240520Z 2406/2506 20010KT P6SM SCT025 BKN250
     FM240800 22012G18KT P6SM BKN015
     FM241500 29012G18KT P6SM BKN025
     FM242100 26015G25KT P6SM FEW030 SCT250
     FM250200 21005KT P6SM SKC=



000
FTUS44 KMEG 240520
TAFMEM
TAF
KMEM 240520Z 2406/2506 22019G28KT P6SM SCT015
     FM240800 23015G25KT P6SM BKN020
     FM241500 27017G25KT P6SM BKN025
     FM242000 26015G25KT P6SM SCT250
     FM250100 21005KT P6SM SKC=



000
FTUS44 KMEG 240520
TAFJBR
TAF
KJBR 240520Z 2406/2506 21020G25KT P6SM SCT025 BKN090
     FM240700 24015G25KT P6SM VCSH BKN020 OVC100
     FM241400 26017G27KT P6SM BKN025
     FM241800 25015G25KT P6SM SCT250
     FM250000 25006KT P6SM SKC=



000
FTUS44 KMEG 240302 AAB
TAFMEM
TAF AMD
KMEM 240302Z 2403/2424 21010G15KT P6SM BKN015 OVC100
     FM240500 22019G28KT P6SM BKN015
     FM241500 27017G25KT P6SM BKN025
     FM242000 26015G25KT P6SM SCT250=



000
FTUS44 KMEG 240108 AAA
TAFMKL
TAF AMD
KMKL 240108Z 2401/2424 22010G20KT 3SM RA BR SCT008 OVC012
     FM240200 20010G20KT P6SM SCT008 OVC015
     FM240600 21019G28KT P6SM BKN015
     FM241500 26017G25KT P6SM BKN020
     FM241800 26014G25KT P6SM SCT250=



000
FTUS44 KMEG 240107 AAA
TAFMEM
TAF AMD
KMEM 240107Z 2401/2424 21010G15KT P6SM BKN008 OVC100
     FM240500 22019G28KT P6SM BKN015
     FM241500 27017G25KT P6SM BKN025
     FM242000 26015G25KT P6SM SCT250=



000
FTUS44 KMEG 232320
TAFJBR
TAF
KJBR 232320Z 2400/2424 19008KT P6SM BKN006 OVC015
     FM240600 23020G30KT P6SM VCSH BKN025
     FM241400 26017G27KT P6SM BKN025=



000
FTUS44 KMEG 232320
TAFMEM
TAF
KMEM 232320Z 2400/2424 21010KT P6SM SCT009 OVC100
     FM240500 22019G28KT P6SM BKN015
     FM241500 27017G25KT P6SM BKN025
     FM242000 26015G25KT P6SM SCT250=



000
FTUS44 KMEG 232320
TAFTUP
TAF
KTUP 232320Z 2400/2424 20015G25KT P6SM VCSH BKN015
     FM240300 21012KT P6SM SCT025 BKN250
     FM240800 22012G18KT P6SM BKN015
     FM241500 29012G18KT P6SM BKN025
     FM242100 26015G25KT P6SM FEW030 SCT250=



000
FTUS44 KMEG 232320
TAFMKL
TAF
KMKL 232320Z 2400/2424 18010G18KT 3SM RA BR SCT008 OVC030
     FM240200 20010KT P6SM SCT008 OVC015
     FM240600 21019G28KT P6SM BKN015
     FM241500 26017G25KT P6SM BKN020
     FM241800 26014G25KT P6SM SCT250=



000
FTUS44 KMEG 232231 AAB
TAFJBR
TAF AMD
KJBR 232231Z 2323/2418 22005KT P6SM OVC010
     FM232300 19008KT P6SM SCT008 OVC015
     FM240600 23020G30KT P6SM VCSH BKN015
     FM241400 26017G27KT P6SM BKN025=



000
FTUS44 KMEG 232228 AAC
TAFTUP
TAF AMD
KTUP 232228Z 2322/2418 17015G25KT 3SM RA BR SCT007 OVC015
     FM240000 20010G18KT P6SM BKN025
     FM240300 21012KT P6SM SCT025 BKN250
     FM240800 22012G18KT P6SM BKN015
     FM241500 29012G18KT P6SM BKN025=



000
FTUS44 KMEG 232226 AAB
TAFMKL
TAF AMD
KMKL 232226Z 2322/2418 18010G18KT 6SM BR SCT008 OVC020
      TEMPO 2322/2401 5SM -RA BR OVC008
     FM240100 20010KT P6SM SCT008 OVC015
     FM240600 21019G28KT P6SM BKN015
     FM241500 26017G25KT P6SM BKN020=



000
FTUS44 KMEG 232225 AAC
TAFMEM
TAF AMD
KMEM 232225Z 2322/2418 26010G20KT 6SM RA BKN015 BKN045
      TEMPO 2322/2323 5SM -RA BKN015
     FM232300 21010KT P6SM SCT009 OVC015
     FM240500 22019G28KT P6SM BKN015
     FM241500 27017G25KT P6SM BKN025=



000
FTUS44 KMEG 232225 AAC
TAFMEM
TAF AMD
KMEM 232225Z 2322/2418 26010G20KT 6SM RA BKN015 BKN045
      TEMPO 2322/2323 5SM -RA BKN015
     FM232300 21010KT P6SM SCT009 OVC015
     FM240500 22019G28KT P6SM BKN015
     FM241500 27017G25KT P6SM BKN025=



    US Dept of Commerce
    National Oceanic and Atmospheric Administration
    National Weather Service
    1325 East West Highway
    Silver Spring, MD 20910
    Page Author: NWS Internet Services Team
Disclaimer
Information Quality
Credits
Glossary
Privacy Policy
Freedom of Information Act (FOIA)
About Us
Career Opportunities